Time;durP1;ratioP1;P1;durP2;ratioP2;P2;SDS_P1;SDS_P2;PMS_P1;PMS_P2;Temp;Humidity;BMP_temperature;BMP_pressure;BME280_temperature;BME280_humidity;BME280_pressure;Samples;Min_cycle;Max_cycle;Signal;HPM_P1;HPM_P2
2021/08/26 00:07:46;;;;;;;13.43;12.23;;;19.10;99.90;;;;;;5054309;28;20443;-67
2021/08/26 00:10:13;;;;;;;13.47;12.27;;;19.10;99.90;;;;;;5055021;28;20487;-67
2021/08/26 00:12:39;;;;;;;14.67;13.37;;;19.10;99.90;;;;;;5055968;28;20196;-67
2021/08/26 00:15:06;;;;;;;16.07;14.57;;;19.00;99.90;;;;;;5036869;28;20420;-68
2021/08/26 00:17:32;;;;;;;15.20;13.90;;;19.00;99.90;;;;;;5055776;28;20408;-67
2021/08/26 00:19:58;;;;;;;13.67;12.57;;;18.90;99.90;;;;;;5054688;28;20412;-68
2021/08/26 00:22:24;;;;;;;14.30;13.10;;;18.90;99.90;;;;;;5045181;28;20421;-67
2021/08/26 00:24:50;;;;;;;13.10;12.00;;;18.90;99.90;;;;;;5035699;28;20409;-67
2021/08/26 00:27:16;;;;;;;14.20;13.00;;;18.90;99.90;;;;;;5034737;28;20416;-68
2021/08/26 00:29:41;;;;;;;13.50;12.30;;;18.90;99.90;;;;;;5035479;28;20234;-67
2021/08/26 00:32:08;;;;;;;14.40;13.07;;;18.90;99.90;;;;;;5034615;28;20627;-68
2021/08/26 00:34:33;;;;;;;14.17;12.93;;;18.90;99.90;;;;;;5035545;28;20177;-68
2021/08/26 00:36:59;;;;;;;13.47;12.37;;;18.90;99.90;;;;;;5017100;28;20915;-68
2021/08/26 00:39:25;;;;;;;11.90;10.80;;;18.90;99.90;;;;;;5035215;28;20194;-67
2021/08/26 00:41:50;;;;;;;12.93;11.90;;;19.00;99.90;;;;;;5041619;28;20228;-68
2021/08/26 00:44:18;;;;;;;11.50;10.43;;;19.00;99.90;;;;;;5054567;28;20902;-67
2021/08/26 00:46:47;;;;;;;12.43;11.33;;;19.00;99.90;;;;;;5055281;28;20534;-67
2021/08/26 00:49:17;;;;;;;12.27;11.27;;;19.00;99.90;;;;;;5054018;28;20463;-67
2021/08/26 00:51:45;;;;;;;11.53;10.53;;;19.00;99.90;;;;;;5054973;28;20454;-67
2021/08/26 00:54:11;;;;;;;12.33;11.20;;;19.00;99.90;;;;;;5054329;28;20454;-67
2021/08/26 00:56:38;;;;;;;12.23;11.13;;;19.00;99.90;;;;;;5037337;28;20419;-67
2021/08/26 00:59:06;;;;;;;13.33;12.13;;;19.00;99.90;;;;;;5054260;28;20423;-67
2021/08/26 01:01:43;;;;;;;13.70;12.50;;;19.00;99.90;;;;;;5054367;28;20424;-67
2021/08/26 01:04:36;;;;;;;12.83;11.67;;;19.00;99.90;;;;;;5054163;28;20428;-67
2021/08/26 01:07:18;;;;;;;13.63;12.37;;;19.00;99.90;;;;;;5053688;28;20463;-67
2021/08/26 01:09:49;;;;;;;12.67;11.57;;;19.00;99.90;;;;;;5054887;28;20966;-67
2021/08/26 01:12:20;;;;;;;13.67;12.50;;;19.00;99.90;;;;;;5053985;28;20403;-68
2021/08/26 01:14:47;;;;;;;12.63;11.53;;;19.00;99.90;;;;;;5054496;28;20843;-67
2021/08/26 01:17:20;;;;;;;12.93;11.73;;;19.00;99.90;;;;;;5054035;28;20439;-67
2021/08/26 01:19:46;;;;;;;12.00;10.90;;;19.00;99.90;;;;;;5054629;28;20416;-67
2021/08/26 01:22:12;;;;;;;10.60;9.67;;;19.00;99.90;;;;;;5043966;28;20809;-67
2021/08/26 01:24:40;;;;;;;9.53;8.63;;;19.00;99.90;;;;;;5035039;28;20417;-67
2021/08/26 01:27:06;;;;;;;9.13;8.33;;;19.00;99.90;;;;;;5033445;28;20507;-68
2021/08/26 01:29:32;;;;;;;9.37;8.67;;;18.90;99.90;;;;;;5016898;28;20509;-67
2021/08/26 01:31:58;;;;;;;9.93;9.13;;;18.90;99.90;;;;;;5034090;28;20746;-75
2021/08/26 01:34:25;;;;;;;9.10;8.30;;;19.00;99.90;;;;;;5033723;28;20496;-67
2021/08/26 01:36:51;;;;;;;8.47;7.87;;;18.90;99.90;;;;;;5034362;28;20409;-67
2021/08/26 01:39:17;;;;;;;8.83;8.13;;;19.00;99.90;;;;;;5034532;28;20428;-67
2021/08/26 01:41:49;;;;;;;6.73;6.30;;;19.00;99.90;;;;;;5034709;28;20189;-67
2021/08/26 01:44:17;;;;;;;5.93;5.50;;;19.10;99.90;;;;;;5033556;28;20272;-67
2021/08/26 01:46:43;;;;;;;5.70;5.30;;;19.20;99.90;;;;;;5034105;28;20428;-68
2021/08/26 01:49:09;;;;;;;5.20;4.70;;;19.30;99.90;;;;;;5032893;28;20476;-68
2021/08/26 01:51:36;;;;;;;4.63;4.33;;;19.40;99.90;;;;;;5033789;28;20186;-67
2021/08/26 01:54:02;;;;;;;4.50;4.20;;;19.40;99.90;;;;;;5033372;28;20257;-74
2021/08/26 01:56:27;;;;;;;5.53;4.80;;;19.40;99.90;;;;;;5033923;28;20947;-67
2021/08/26 01:58:53;;;;;;;4.70;4.40;;;19.50;99.90;;;;;;5033660;28;20162;-67
2021/08/26 02:01:19;;;;;;;4.20;3.90;;;19.60;99.90;;;;;;5032828;28;20178;-67
2021/08/26 02:03:44;;;;;;;3.80;3.60;;;19.70;99.90;;;;;;5035399;28;20559;-67
2021/08/26 02:06:10;;;;;;;3.80;3.50;;;19.70;99.90;;;;;;5052915;28;20170;-67
2021/08/26 02:08:36;;;;;;;3.80;3.53;;;19.70;99.90;;;;;;5053634;28;20177;-67
2021/08/26 02:11:02;;;;;;;5.10;3.73;;;19.70;99.90;;;;;;5053010;28;20192;-74
2021/08/26 02:13:27;;;;;;;3.57;3.37;;;19.70;99.90;;;;;;5047227;28;20210;-67
2021/08/26 02:15:53;;;;;;;4.60;4.20;;;19.60;99.90;;;;;;5033329;28;20171;-67
2021/08/26 02:18:19;;;;;;;4.20;3.80;;;19.50;99.90;;;;;;5032694;28;20951;-67
2021/08/26 02:20:44;;;;;;;3.67;3.33;;;19.40;99.90;;;;;;5032672;28;20228;-67
2021/08/26 02:23:10;;;;;;;4.00;3.70;;;19.30;99.90;;;;;;5032762;28;20170;-68
2021/08/26 02:25:36;;;;;;;4.40;4.10;;;19.30;99.90;;;;;;5033414;28;20308;-67
2021/08/26 02:28:02;;;;;;;4.90;4.03;;;19.20;99.90;;;;;;5032423;28;20186;-73
2021/08/26 02:30:27;;;;;;;3.70;3.50;;;19.20;99.90;;;;;;5032758;28;20206;-67
2021/08/26 02:32:53;;;;;;;4.60;4.27;;;19.10;99.90;;;;;;5035291;28;20188;-67
2021/08/26 02:35:19;;;;;;;4.53;4.20;;;19.00;99.90;;;;;;5052398;28;20177;-67
2021/08/26 02:37:44;;;;;;;5.53;4.73;;;19.00;99.90;;;;;;5052783;28;20263;-68
2021/08/26 02:40:10;;;;;;;5.20;4.70;;;19.00;99.90;;;;;;5051963;28;20544;-67
2021/08/26 02:42:36;;;;;;;5.07;4.67;;;19.00;99.90;;;;;;5053057;28;20166;-67
2021/08/26 02:45:02;;;;;;;4.67;4.23;;;18.90;99.90;;;;;;5053009;28;20184;-75
2021/08/26 02:47:28;;;;;;;4.47;4.07;;;18.90;99.90;;;;;;5052805;28;20295;-68
2021/08/26 02:49:54;;;;;;;4.33;4.10;;;18.90;99.90;;;;;;5052934;28;20501;-67
2021/08/26 02:52:19;;;;;;;4.80;4.40;;;18.90;99.90;;;;;;5034327;28;20614;-67
2021/08/26 02:54:45;;;;;;;4.87;4.57;;;18.90;99.90;;;;;;5051072;28;20184;-67
2021/08/26 02:57:11;;;;;;;4.80;4.40;;;18.80;99.90;;;;;;5051692;28;20173;-68
2021/08/26 02:59:37;;;;;;;8.27;5.17;;;18.70;99.90;;;;;;5052714;28;20227;-67
2021/08/26 03:02:02;;;;;;;4.90;4.50;;;18.70;99.90;;;;;;5052407;28;20529;-74
2021/08/26 03:04:28;;;;;;;4.90;4.60;;;18.70;99.90;;;;;;5051548;28;20205;-67
2021/08/26 03:06:54;;;;;;;4.73;4.33;;;18.70;99.90;;;;;;5052707;28;20910;-67
2021/08/26 03:09:20;;;;;;;5.03;4.63;;;18.70;99.90;;;;;;5051862;28;20664;-67
2021/08/26 03:11:46;;;;;;;8.43;4.83;;;18.60;99.90;;;;;;5052428;28;20594;-67
2021/08/26 03:14:11;;;;;;;7.00;4.60;;;18.60;99.90;;;;;;5051324;28;20629;-67
2021/08/26 03:16:37;;;;;;;4.97;4.53;;;18.60;99.90;;;;;;5052742;28;20181;-67
2021/08/26 03:19:03;;;;;;;5.23;4.83;;;18.60;99.90;;;;;;5052376;28;20190;-69
2021/08/26 03:21:28;;;;;;;4.50;4.17;;;18.60;99.90;;;;;;5051813;28;20174;-67
2021/08/26 03:23:54;;;;;;;9.93;8.30;;;18.60;99.90;;;;;;5052387;28;20228;-67
2021/08/26 03:26:20;;;;;;;11.53;9.40;;;18.60;99.90;;;;;;5033991;28;20224;-67
2021/08/26 03:28:45;;;;;;;11.70;8.00;;;18.70;99.90;;;;;;5050460;28;20211;-67
2021/08/26 03:31:13;;;;;;;7.90;5.77;;;18.70;99.90;;;;;;5050936;28;20656;-67
2021/08/26 03:33:39;;;;;;;7.93;7.20;;;18.60;99.90;;;;;;5052210;28;20181;-67
2021/08/26 03:36:05;;;;;;;9.87;6.03;;;18.60;99.90;;;;;;5051937;28;20416;-73
2021/08/26 03:38:31;;;;;;;11.77;6.60;;;18.60;99.90;;;;;;5051816;28;20178;-67
2021/08/26 03:40:56;;;;;;;5.53;5.00;;;18.60;99.90;;;;;;5052168;28;20434;-67
2021/08/26 03:43:22;;;;;;;9.93;8.47;;;18.50;99.90;;;;;;5036858;28;20189;-67
2021/08/26 03:45:49;;;;;;;7.50;5.90;;;18.50;99.90;;;;;;5032283;28;20178;-67
2021/08/26 03:48:15;;;;;;;10.07;9.27;;;18.50;99.90;;;;;;5031948;28;20552;-67
2021/08/26 03:50:41;;;;;;;8.50;6.13;;;18.40;99.90;;;;;;5032609;28;20495;-67
2021/08/26 03:53:06;;;;;;;5.63;4.73;;;18.40;99.90;;;;;;5032216;28;20486;-68
2021/08/26 03:55:32;;;;;;;7.23;5.20;;;18.30;99.90;;;;;;5032542;28;20408;-67
2021/08/26 03:57:58;;;;;;;7.03;6.53;;;18.30;99.90;;;;;;5032422;28;20174;-67
2021/08/26 04:00:23;;;;;;;8.40;7.50;;;18.30;99.90;;;;;;5031899;28;20236;-67
2021/08/26 04:02:49;;;;;;;8.73;6.60;;;18.30;99.90;;;;;;5033455;28;20171;-67
2021/08/26 04:05:15;;;;;;;5.10;4.60;;;18.30;99.90;;;;;;5031766;28;20702;-67
2021/08/26 04:07:41;;;;;;;4.97;4.50;;;18.30;99.90;;;;;;5032468;28;20178;-67
2021/08/26 04:10:07;;;;;;;5.83;5.30;;;18.30;99.90;;;;;;5031730;28;20661;-71
2021/08/26 04:12:32;;;;;;;7.40;6.57;;;18.20;99.90;;;;;;5032295;28;20277;-67
2021/08/26 04:14:58;;;;;;;5.00;4.33;;;18.20;99.90;;;;;;5032371;28;20452;-67
2021/08/26 04:17:24;;;;;;;8.73;7.93;;;18.20;99.90;;;;;;5031954;28;20178;-67
2021/08/26 04:19:50;;;;;;;5.90;5.03;;;18.20;99.90;;;;;;5035919;28;20554;-67
2021/08/26 04:22:15;;;;;;;6.60;5.57;;;18.20;99.90;;;;;;5031711;28;20178;-68
2021/08/26 04:24:41;;;;;;;5.87;5.23;;;18.20;99.90;;;;;;5032220;28;20253;-67
2021/08/26 04:27:08;;;;;;;7.97;5.17;;;18.20;99.90;;;;;;5031815;28;20170;-73
2021/08/26 04:29:33;;;;;;;6.70;4.30;;;18.20;99.90;;;;;;5014550;28;20452;-67
2021/08/26 04:31:59;;;;;;;7.60;5.37;;;18.10;99.90;;;;;;5032201;28;20401;-67
2021/08/26 04:34:25;;;;;;;6.00;4.30;;;18.10;99.90;;;;;;5036672;28;20645;-68
2021/08/26 04:36:50;;;;;;;5.20;4.10;;;18.10;99.90;;;;;;5052033;28;20165;-67
2021/08/26 04:39:16;;;;;;;5.47;4.63;;;18.10;99.90;;;;;;5051194;28;20181;-67
2021/08/26 04:41:43;;;;;;;6.83;5.20;;;18.10;99.90;;;;;;5051663;28;20204;-67
2021/08/26 04:44:09;;;;;;;4.67;4.30;;;18.10;99.90;;;;;;5054539;28;20527;-70
2021/08/26 04:46:34;;;;;;;7.30;5.10;;;18.10;99.90;;;;;;5044124;28;20511;-69
2021/08/26 04:49:00;;;;;;;8.50;7.70;;;18.10;99.90;;;;;;5053448;28;20817;-67
2021/08/26 04:51:26;;;;;;;7.20;6.53;;;18.10;99.90;;;;;;5054886;28;20184;-67
2021/08/26 04:53:51;;;;;;;7.33;6.20;;;18.10;99.90;;;;;;5055572;28;20178;-67
2021/08/26 04:56:17;;;;;;;6.30;5.67;;;18.10;99.90;;;;;;5054801;28;20165;-67
2021/08/26 04:58:43;;;;;;;6.27;5.53;;;18.10;99.90;;;;;;5055702;28;20256;-69
2021/08/26 05:01:09;;;;;;;5.80;5.17;;;18.20;99.90;;;;;;5055313;28;20537;-76
2021/08/26 05:03:35;;;;;;;8.20;6.07;;;18.20;99.90;;;;;;5055132;28;20185;-69
2021/08/26 05:06:04;;;;;;;7.40;4.80;;;18.20;99.90;;;;;;5053761;28;20427;-69
2021/08/26 05:08:30;;;;;;;7.00;4.57;;;18.20;99.90;;;;;;5034864;28;20221;-68
2021/08/26 05:10:55;;;;;;;6.00;4.43;;;18.30;99.90;;;;;;5053405;28;20491;-68
2021/08/26 05:13:21;;;;;;;6.10;4.00;;;18.40;99.90;;;;;;5045121;28;20244;-68
2021/08/26 05:15:47;;;;;;;7.53;6.83;;;18.60;99.90;;;;;;5035818;28;20180;-68
2021/08/26 05:18:13;;;;;;;7.00;6.33;;;18.80;99.90;;;;;;5052169;28;20181;-68
2021/08/26 05:20:38;;;;;;;6.63;6.13;;;19.00;99.90;;;;;;5036735;28;20221;-68
2021/08/26 05:23:04;;;;;;;6.60;6.00;;;19.20;99.90;;;;;;5034280;28;20182;-68
2021/08/26 05:25:30;;;;;;;8.23;6.50;;;19.30;99.90;;;;;;5033515;28;20174;-68
2021/08/26 05:27:56;;;;;;;7.17;4.90;;;19.50;99.90;;;;;;5034677;28;20654;-67
2021/08/26 05:30:22;;;;;;;6.60;5.30;;;19.70;99.90;;;;;;5047531;28;20491;-69
2021/08/26 05:32:48;;;;;;;5.47;4.67;;;19.90;99.90;;;;;;5038364;28;20837;-68
2021/08/26 05:35:14;;;;;;;7.97;5.00;;;20.00;99.90;;;;;;5016112;28;20179;-73
2021/08/26 05:37:40;;;;;;;6.80;5.37;;;20.10;99.90;;;;;;5050908;28;20432;-67
2021/08/26 05:40:06;;;;;;;9.20;5.60;;;20.20;99.90;;;;;;5034946;28;20207;-68
2021/08/26 05:42:32;;;;;;;7.53;5.83;;;20.30;99.90;;;;;;5043218;28;20776;-67
2021/08/26 05:44:58;;;;;;;5.80;4.80;;;20.30;99.90;;;;;;5034990;28;20444;-68
2021/08/26 05:47:24;;;;;;;8.13;7.23;;;20.40;99.90;;;;;;5042822;28;20429;-66
2021/08/26 05:49:49;;;;;;;5.63;4.63;;;20.40;99.70;;;;;;5054402;28;20221;-64
2021/08/26 05:52:15;;;;;;;10.40;5.23;;;20.40;98.60;;;;;;5038395;28;20189;-64
2021/08/26 05:54:41;;;;;;;5.73;5.03;;;20.20;98.60;;;;;;5053736;28;20173;-63
2021/08/26 05:57:06;;;;;;;5.40;4.90;;;20.00;98.90;;;;;;5043557;28;20257;-64
2021/08/26 05:59:32;;;;;;;7.30;4.30;;;19.80;99.50;;;;;;5048549;28;20182;-64
2021/08/26 06:02:00;;;;;;;10.03;4.53;;;19.60;99.70;;;;;;5052546;28;20169;-64
2021/08/26 06:04:26;;;;;;;9.60;5.37;;;19.40;99.90;;;;;;5033678;28;20170;-64
2021/08/26 06:06:52;;;;;;;9.10;6.00;;;19.20;99.90;;;;;;5034216;28;20415;-64
2021/08/26 06:09:18;;;;;;;7.97;4.33;;;19.10;99.90;;;;;;5033500;28;20567;-64
2021/08/26 06:11:44;;;;;;;8.10;5.17;;;18.90;99.90;;;;;;5034518;28;20174;-64
2021/08/26 06:14:11;;;;;;;7.00;4.70;;;18.70;99.90;;;;;;5035489;28;20175;-64
2021/08/26 06:16:36;;;;;;;5.70;3.97;;;18.60;99.90;;;;;;5052089;28;20420;-64
2021/08/26 06:19:02;;;;;;;6.50;5.80;;;18.40;99.90;;;;;;5044932;28;20424;-66
2021/08/26 06:21:28;;;;;;;8.77;5.17;;;18.30;99.90;;;;;;5033329;28;20429;-64
2021/08/26 06:23:54;;;;;;;9.23;6.90;;;18.20;99.90;;;;;;5035492;28;20514;-64
2021/08/26 06:26:20;;;;;;;6.77;5.90;;;18.10;99.90;;;;;;5033139;28;20174;-65
2021/08/26 06:28:45;;;;;;;7.30;4.30;;;18.10;99.90;;;;;;5053966;28;20173;-64
2021/08/26 06:31:11;;;;;;;7.00;6.47;;;18.10;99.90;;;;;;5041396;28;20197;-64
2021/08/26 06:33:37;;;;;;;9.93;5.63;;;18.00;99.90;;;;;;5039185;28;20198;-63
2021/08/26 06:36:03;;;;;;;3.90;3.60;;;18.00;99.90;;;;;;5033491;28;20405;-63
2021/08/26 06:38:29;;;;;;;6.00;5.30;;;18.00;99.90;;;;;;5033357;28;20774;-64
2021/08/26 06:40:54;;;;;;;4.43;4.00;;;17.90;99.90;;;;;;5033553;28;20423;-63
2021/08/26 06:43:20;;;;;;;5.80;3.77;;;17.80;99.90;;;;;;5033512;28;20178;-66
2021/08/26 06:45:46;;;;;;;8.87;4.63;;;17.90;99.90;;;;;;5049900;28;20265;-66
2021/08/26 06:48:11;;;;;;;8.90;3.23;;;17.80;99.90;;;;;;5050687;28;20241;-63
2021/08/26 06:50:37;;;;;;;6.23;3.40;;;17.80;99.90;;;;;;5041808;28;20207;-63
2021/08/26 06:53:04;;;;;;;10.93;4.20;;;17.70;99.90;;;;;;5043440;28;20198;-63
2021/08/26 06:55:30;;;;;;;4.33;3.03;;;17.70;99.90;;;;;;5040836;28;20483;-65
2021/08/26 06:57:56;;;;;;;5.90;5.03;;;17.60;99.90;;;;;;5033113;28;20184;-64
2021/08/26 07:00:21;;;;;;;4.07;3.30;;;17.60;99.90;;;;;;5036743;28;20256;-64
2021/08/26 07:02:47;;;;;;;3.20;3.00;;;17.60;99.90;;;;;;5053144;28;20178;-64
2021/08/26 07:05:13;;;;;;;6.07;5.33;;;17.60;99.90;;;;;;5052511;28;20174;-64
2021/08/26 07:07:39;;;;;;;3.47;2.97;;;17.50;99.90;;;;;;5052038;28;20243;-64
2021/08/26 07:10:05;;;;;;;5.73;5.20;;;17.50;99.90;;;;;;5052869;28;20531;-64
2021/08/26 07:12:31;;;;;;;5.30;4.80;;;17.60;99.90;;;;;;5047815;28;20178;-64
2021/08/26 07:14:58;;;;;;;5.60;4.30;;;17.50;99.90;;;;;;5042181;28;20429;-64
2021/08/26 07:17:24;;;;;;;5.80;3.90;;;17.50;99.90;;;;;;5032315;28;20410;-64
2021/08/26 07:19:50;;;;;;;5.33;3.90;;;17.50;99.90;;;;;;5032868;28;20908;-64
2021/08/26 07:22:16;;;;;;;4.93;4.30;;;17.60;99.90;;;;;;5032647;28;20176;-64
2021/08/26 07:24:42;;;;;;;7.93;4.90;;;17.60;99.90;;;;;;5033979;28;20424;-64
2021/08/26 07:27:09;;;;;;;4.43;4.03;;;17.60;99.90;;;;;;5033352;28;20444;-64
2021/08/26 07:29:34;;;;;;;5.53;5.03;;;17.70;99.90;;;;;;5042921;28;20209;-64
2021/08/26 07:32:00;;;;;;;6.90;4.10;;;17.70;99.90;;;;;;5052553;28;20533;-64
2021/08/26 07:34:26;;;;;;;6.40;5.80;;;17.70;99.90;;;;;;5034431;28;20249;-64
2021/08/26 07:36:51;;;;;;;8.57;4.10;;;17.80;99.90;;;;;;5032808;28;20171;-64
2021/08/26 07:39:17;;;;;;;10.80;7.20;;;17.80;99.90;;;;;;5032976;28;20213;-64
2021/08/26 07:41:43;;;;;;;7.93;5.47;;;17.80;99.90;;;;;;5034042;28;20178;-64
2021/08/26 07:44:09;;;;;;;15.23;7.03;;;17.80;99.90;;;;;;5034702;28;20433;-64
2021/08/26 07:46:34;;;;;;;8.10;5.03;;;17.90;99.90;;;;;;5044557;28;20174;-64
2021/08/26 07:49:00;;;;;;;5.50;4.87;;;17.80;99.90;;;;;;5031795;28;20226;-64
2021/08/26 07:51:26;;;;;;;7.13;5.60;;;17.90;99.90;;;;;;5013802;28;20252;-65
2021/08/26 07:53:51;;;;;;;7.87;6.03;;;18.00;99.90;;;;;;5052082;28;20185;-64
2021/08/26 07:56:17;;;;;;;5.57;5.03;;;18.00;99.90;;;;;;5046303;28;20209;-64
2021/08/26 07:58:43;;;;;;;6.60;5.90;;;18.10;99.90;;;;;;5041475;28;20596;-65
2021/08/26 08:01:09;;;;;;;7.87;6.33;;;18.20;99.90;;;;;;5033336;28;20273;-63
2021/08/26 08:03:35;;;;;;;6.83;6.07;;;18.30;99.90;;;;;;5031737;28;20213;-64
2021/08/26 08:06:02;;;;;;;6.87;5.70;;;18.50;99.90;;;;;;5041788;28;20420;-64
2021/08/26 08:08:28;;;;;;;9.03;8.23;;;18.60;99.90;;;;;;5050661;28;20400;-64
2021/08/26 08:10:54;;;;;;;5.83;5.27;;;18.60;99.90;;;;;;5051766;28;20542;-64
2021/08/26 08:13:19;;;;;;;9.03;5.50;;;18.70;99.90;;;;;;5051996;28;20177;-67
2021/08/26 08:15:45;;;;;;;9.30;8.17;;;18.70;99.90;;;;;;5052208;28;20495;-64
2021/08/26 08:18:12;;;;;;;11.30;6.87;;;18.70;99.90;;;;;;5053823;28;20778;-64
2021/08/26 08:20:38;;;;;;;10.87;5.90;;;18.70;99.90;;;;;;5055687;28;20180;-64
2021/08/26 08:23:04;;;;;;;8.60;5.80;;;18.70;99.90;;;;;;5056167;28;20404;-64
2021/08/26 08:25:30;;;;;;;6.77;5.10;;;18.70;99.90;;;;;;5055486;28;20392;-64
2021/08/26 08:27:55;;;;;;;7.87;5.17;;;18.60;99.90;;;;;;5055962;28;20172;-64
2021/08/26 08:30:26;;;;;;;5.53;5.07;;;18.60;99.90;;;;;;5055356;28;20213;-67
2021/08/26 08:32:53;;;;;;;10.07;5.40;;;18.60;99.90;;;;;;5056034;28;20216;-64
2021/08/26 08:35:21;;;;;;;6.70;5.83;;;18.60;99.90;;;;;;5055855;28;20414;-64
2021/08/26 08:37:47;;;;;;;8.77;5.60;;;18.50;99.90;;;;;;5055649;28;20411;-64
2021/08/26 08:40:12;;;;;;;5.53;5.03;;;18.50;99.90;;;;;;5055799;28;20473;-64
2021/08/26 08:42:38;;;;;;;5.87;5.27;;;18.50;99.90;;;;;;5055114;28;20174;-64
2021/08/26 08:45:05;;;;;;;5.80;5.20;;;18.60;99.90;;;;;;5055294;28;20561;-64
2021/08/26 08:47:36;;;;;;;10.17;4.60;;;18.60;99.90;;;;;;5054913;28;20264;-64
2021/08/26 08:50:03;;;;;;;9.03;4.80;;;18.60;99.90;;;;;;5055522;28;20779;-64
2021/08/26 08:52:34;;;;;;;7.10;5.83;;;18.60;99.90;;;;;;5054904;28;20408;-64
2021/08/26 08:55:00;;;;;;;5.47;4.40;;;18.60;99.90;;;;;;5055553;28;20388;-64
2021/08/26 08:57:26;;;;;;;6.87;6.23;;;18.60;99.90;;;;;;5054840;28;20408;-64
2021/08/26 08:59:51;;;;;;;6.73;4.20;;;18.60;99.90;;;;;;5055118;28;20177;-64
2021/08/26 09:02:17;;;;;;;7.10;5.00;;;18.50;99.90;;;;;;5055382;28;20181;-64
2021/08/26 09:05:00;;;;;;;6.20;4.97;;;18.60;99.90;;;;;;5054633;28;20647;-64
2021/08/26 09:07:28;;;;;;;9.30;4.90;;;18.60;99.90;;;;;;5054771;28;20408;-64
2021/08/26 09:09:54;;;;;;;8.03;5.50;;;18.60;99.90;;;;;;5055165;28;20452;-64
2021/08/26 09:12:40;;;;;;;5.57;5.07;;;18.60;99.90;;;;;;5054703;28;20420;-65
2021/08/26 09:15:13;;;;;;;13.53;7.37;;;18.60;99.90;;;;;;5036790;28;20432;-65
2021/08/26 09:17:39;;;;;;;13.30;6.47;;;18.60;99.90;;;;;;5054633;28;20431;-64
2021/08/26 09:20:10;;;;;;;9.03;5.50;;;18.60;99.90;;;;;;5054756;28;20408;-64
2021/08/26 09:22:37;;;;;;;7.73;5.87;;;18.60;99.90;;;;;;5054817;28;20415;-64
2021/08/26 09:25:04;;;;;;;8.77;5.47;;;18.60;99.90;;;;;;5055260;28;20441;-63
2021/08/26 09:27:39;;;;;;;6.37;5.77;;;18.60;99.90;;;;;;5054354;28;20903;-64
2021/08/26 09:30:16;;;;;;;7.97;6.63;;;18.60;99.90;;;;;;5054175;28;20447;-64
2021/08/26 09:32:48;;;;;;;7.90;5.90;;;18.70;99.90;;;;;;5054349;28;20392;-64
2021/08/26 09:35:33;;;;;;;5.57;5.07;;;18.70;99.90;;;;;;5054820;28;20405;-64
2021/08/26 09:38:04;;;;;;;7.60;6.40;;;18.80;99.90;;;;;;5054821;28;20388;-64
2021/08/26 09:40:46;;;;;;;6.07;5.43;;;18.80;99.90;;;;;;5054116;28;20400;-64
2021/08/26 09:43:12;;;;;;;6.40;5.77;;;18.90;99.90;;;;;;5054452;28;20420;-64
2021/08/26 09:45:40;;;;;;;7.53;5.70;;;18.90;99.90;;;;;;5054011;28;20442;-64
2021/08/26 09:48:11;;;;;;;10.33;6.27;;;19.00;99.90;;;;;;5054502;28;20924;-64
2021/08/26 09:50:44;;;;;;;8.70;5.50;;;19.10;99.90;;;;;;5054158;28;20448;-64
2021/08/26 09:53:11;;;;;;;7.93;6.10;;;19.10;99.90;;;;;;5054507;28;20388;-64
2021/08/26 09:55:49;;;;;;;6.83;6.13;;;19.20;99.90;;;;;;5053958;28;20393;-64
2021/08/26 09:58:23;;;;;;;8.27;6.30;;;19.30;99.90;;;;;;5054444;28;20465;-64
2021/08/26 10:01:02;;;;;;;6.60;5.60;;;19.30;99.90;;;;;;5053791;28;20483;-64
2021/08/26 10:03:32;;;;;;;10.33;5.30;;;19.30;99.90;;;;;;5053438;28;20724;-65
2021/08/26 10:05:58;;;;;;;6.93;5.10;;;19.40;99.90;;;;;;5054280;28;20404;-64
2021/08/26 10:08:25;;;;;;;9.20;7.13;;;19.40;99.90;;;;;;5054172;28;20407;-64
2021/08/26 10:10:52;;;;;;;10.17;7.80;;;19.40;99.90;;;;;;5053409;28;20800;-64
2021/08/26 10:13:19;;;;;;;7.37;6.10;;;19.40;99.90;;;;;;5054076;28;20432;-64
2021/08/26 10:15:46;;;;;;;9.27;8.40;;;19.40;99.90;;;;;;5035543;28;20404;-64
2021/08/26 10:18:16;;;;;;;10.20;7.10;;;19.50;99.90;;;;;;5053976;28;20424;-64
2021/08/26 10:20:42;;;;;;;7.63;6.27;;;19.50;99.90;;;;;;5053419;28;20409;-64
2021/08/26 10:23:10;;;;;;;8.90;7.10;;;19.50;99.90;;;;;;5053564;28;20396;-64
2021/08/26 10:25:42;;;;;;;9.07;6.37;;;19.60;99.90;;;;;;5053299;28;20393;-64
2021/08/26 10:28:09;;;;;;;12.70;6.50;;;19.60;99.90;;;;;;5053835;28;20436;-64
2021/08/26 10:30:37;;;;;;;6.77;5.13;;;19.70;99.90;;;;;;5052812;28;20455;-64
2021/08/26 10:33:15;;;;;;;9.07;6.27;;;19.60;99.90;;;;;;5053742;28;20439;-64
2021/08/26 10:35:51;;;;;;;6.47;5.83;;;19.60;99.90;;;;;;5035236;28;20400;-64
2021/08/26 10:38:25;;;;;;;7.33;6.10;;;19.60;99.90;;;;;;5053793;28;20412;-64
2021/08/26 10:40:52;;;;;;;10.37;8.30;;;19.50;99.90;;;;;;5052159;28;20430;-64
2021/08/26 10:43:39;;;;;;;8.20;6.13;;;19.50;99.90;;;;;;5053208;28;20735;-64
2021/08/26 10:46:07;;;;;;;9.03;5.70;;;19.50;99.90;;;;;;5035648;28;20587;-64
2021/08/26 10:48:34;;;;;;;8.73;6.80;;;19.50;99.90;;;;;;5052394;28;20802;-64
2021/08/26 10:51:03;;;;;;;7.23;6.17;;;19.50;99.90;;;;;;5052907;28;20494;-64
2021/08/26 10:53:32;;;;;;;6.53;5.93;;;19.60;99.90;;;;;;5053237;28;20436;-64
2021/08/26 10:56:17;;;;;;;8.27;7.47;;;19.60;99.90;;;;;;5053249;28;20430;-64
2021/08/26 10:58:44;;;;;;;11.30;5.37;;;19.60;99.90;;;;;;5052671;28;20412;-64
2021/08/26 11:01:28;;;;;;;11.03;8.07;;;19.70;99.90;;;;;;5053309;28;20415;-64
2021/08/26 11:03:59;;;;;;;8.67;6.53;;;19.70;99.90;;;;;;5052535;28;20423;-64
2021/08/26 11:06:24;;;;;;;5.80;5.20;;;19.80;99.90;;;;;;5035395;28;20443;-64
2021/08/26 11:09:15;;;;;;;11.07;5.70;;;20.00;99.90;;;;;;5052434;28;20408;-64
2021/08/26 11:11:45;;;;;;;8.63;7.43;;;20.00;99.90;;;;;;5051581;28;20189;-64
2021/08/26 11:14:17;;;;;;;11.53;6.60;;;20.00;99.90;;;;;;5052697;28;20510;-64
2021/08/26 11:17:03;;;;;;;7.80;6.30;;;20.20;99.90;;;;;;5052125;28;20404;-64
2021/08/26 11:19:35;;;;;;;7.73;6.60;;;20.30;99.90;;;;;;5052862;28;20446;-64
2021/08/26 11:22:08;;;;;;;7.37;6.73;;;20.40;99.90;;;;;;5035145;28;20412;-64
2021/08/26 11:24:33;;;;;;;7.40;6.60;;;20.40;99.60;;;;;;5052019;28;20415;-64
2021/08/26 11:27:04;;;;;;;13.73;6.80;;;20.50;99.40;;;;;;5052827;28;20459;-64
2021/08/26 11:29:31;;;;;;;7.73;6.90;;;20.60;99.60;;;;;;5052812;28;20301;-64
2021/08/26 11:32:04;;;;;;;10.87;6.37;;;20.70;99.90;;;;;;5052821;28;20408;-64
2021/08/26 11:34:44;;;;;;;8.10;7.07;;;21.10;99.90;;;;;;5052328;28;20451;-64
2021/08/26 11:37:22;;;;;;;6.43;5.70;;;21.30;98.70;;;;;;5052519;28;20741;-64
2021/08/26 11:40:13;;;;;;;6.63;5.50;;;21.60;98.00;;;;;;5052110;28;20438;-64
2021/08/26 11:42:39;;;;;;;8.43;5.60;;;21.70;97.50;;;;;;5040372;28;20435;-64
2021/08/26 11:45:23;;;;;;;7.00;6.57;;;21.80;97.00;;;;;;5052695;28;20404;-64
2021/08/26 11:47:51;;;;;;;7.13;5.17;;;21.80;96.90;;;;;;5051581;28;20157;-64
2021/08/26 11:50:30;;;;;;;10.00;5.67;;;21.80;96.10;;;;;;5052356;28;20841;-64
2021/08/26 11:53:01;;;;;;;9.57;5.67;;;21.90;96.10;;;;;;5057383;28;20388;-64
2021/08/26 11:55:30;;;;;;;7.43;6.40;;;22.00;96.20;;;;;;5059137;28;20404;-64
2021/08/26 11:57:57;;;;;;;6.13;5.53;;;22.20;96.00;;;;;;5058532;28;20395;-64
2021/08/26 12:00:24;;;;;;;7.57;6.70;;;22.30;94.90;;;;;;5059122;28;20451;-64
2021/08/26 12:02:52;;;;;;;7.90;6.40;;;22.60;95.40;;;;;;5058422;28;20408;-64
2021/08/26 12:05:18;;;;;;;8.87;5.80;;;22.80;95.30;;;;;;5059464;28;20782;-64
2021/08/26 12:07:46;;;;;;;5.83;5.20;;;23.00;95.70;;;;;;5058342;28;20408;-64
2021/08/26 12:10:14;;;;;;;7.47;5.30;;;23.20;95.10;;;;;;5059002;28;20827;-64
2021/08/26 12:12:50;;;;;;;7.40;5.03;;;23.40;94.30;;;;;;5058396;28;20400;-65
2021/08/26 12:15:27;;;;;;;5.00;4.60;;;23.60;94.20;;;;;;5058703;28;20533;-64
2021/08/26 12:17:56;;;;;;;5.50;5.10;;;23.70;93.50;;;;;;5058323;28;20400;-64
2021/08/26 12:20:23;;;;;;;9.63;6.20;;;23.90;92.70;;;;;;5059107;28;20408;-64
2021/08/26 12:22:49;;;;;;;8.40;5.53;;;23.90;91.10;;;;;;5058411;28;20487;-64
2021/08/26 12:25:43;;;;;;;8.20;5.50;;;24.00;91.20;;;;;;5058835;28;20890;-64
2021/08/26 12:28:11;;;;;;;7.97;5.73;;;24.10;91.10;;;;;;5058029;28;20416;-64
2021/08/26 12:30:44;;;;;;;11.77;7.30;;;24.10;91.00;;;;;;5057736;28;20498;-65
2021/08/26 12:33:11;;;;;;;8.90;7.60;;;24.10;91.30;;;;;;5058446;28;20759;-64
2021/08/26 12:35:46;;;;;;;8.27;5.63;;;24.20;90.40;;;;;;5057417;28;20408;-64
2021/08/26 12:38:14;;;;;;;7.13;5.50;;;24.20;90.90;;;;;;5058764;28;20403;-64
2021/08/26 12:40:52;;;;;;;7.00;5.43;;;24.30;91.60;;;;;;5058128;28;20404;-64
2021/08/26 12:43:19;;;;;;;6.90;5.43;;;24.30;90.70;;;;;;5058590;28;20396;-64
2021/08/26 12:45:45;;;;;;;8.37;4.70;;;24.30;90.20;;;;;;5057979;28;20408;-64
2021/08/26 12:48:27;;;;;;;5.50;4.70;;;24.30;89.40;;;;;;5058350;28;20448;-64
2021/08/26 12:51:06;;;;;;;8.10;5.43;;;24.10;89.00;;;;;;5057656;28;20439;-64
2021/08/26 12:53:32;;;;;;;10.13;5.67;;;23.90;88.20;;;;;;5058584;28;20411;-64